sensor_id;sensor_type;location;lat;lon;timestamp;pressure;altitude;pressure_sealevel;temperature;humidity
66762;BME280;53672;48.176;16.338;2023-03-20T00:02:21;99187.03;;;6.15;73.87
66762;BME280;53672;48.176;16.338;2023-03-20T00:07:21;99187.25;;;6.13;74.42
66762;BME280;53672;48.176;16.338;2023-03-20T00:12:24;99192.50;;;6.03;74.79
66762;BME280;53672;48.176;16.338;2023-03-20T00:17:24;99180.44;;;6.01;74.60
66762;BME280;53672;48.176;16.338;2023-03-20T00:22:25;99188.53;;;6.06;74.90
66762;BME280;53672;48.176;16.338;2023-03-20T00:27:27;99178.56;;;6.01;74.85
66762;BME280;53672;48.176;16.338;2023-03-20T00:32:27;99175.75;;;6.13;74.74
66762;BME280;53672;48.176;16.338;2023-03-20T00:37:28;99175.59;;;6.20;74.50
66762;BME280;53672;48.176;16.338;2023-03-20T00:42:30;99172.44;;;6.28;74.45
66762;BME280;53672;48.176;16.338;2023-03-20T00:47:34;99173.13;;;6.40;73.61
66762;BME280;53672;48.176;16.338;2023-03-20T00:52:37;99174.72;;;6.41;73.58
66762;BME280;53672;48.176;16.338;2023-03-20T00:57:42;99165.91;;;6.40;74.06
66762;BME280;53672;48.176;16.338;2023-03-20T01:02:43;99166.78;;;6.51;73.41
66762;BME280;53672;48.176;16.338;2023-03-20T01:07:44;99155.19;;;6.67;72.94
66762;BME280;53672;48.176;16.338;2023-03-20T01:12:46;99167.25;;;6.70;72.23
66762;BME280;53672;48.176;16.338;2023-03-20T01:17:47;99174.84;;;6.78;72.33
66762;BME280;53672;48.176;16.338;2023-03-20T01:22:48;99171.06;;;6.79;71.95
66762;BME280;53672;48.176;16.338;2023-03-20T01:27:52;99179.47;;;6.87;71.64
66762;BME280;53672;48.176;16.338;2023-03-20T01:32:53;99179.19;;;6.89;71.29
66762;BME280;53672;48.176;16.338;2023-03-20T01:37:54;99180.72;;;6.80;71.48
66762;BME280;53672;48.176;16.338;2023-03-20T01:42:56;99177.41;;;6.68;72.04
66762;BME280;53672;48.176;16.338;2023-03-20T01:47:56;99185.25;;;6.74;71.67
66762;BME280;53672;48.176;16.338;2023-03-20T01:53:03;99187.63;;;6.71;71.96
66762;BME280;53672;48.176;16.338;2023-03-20T01:58:10;99187.91;;;6.74;71.98
66762;BME280;53672;48.176;16.338;2023-03-20T02:03:12;99179.69;;;6.54;72.19
66762;BME280;53672;48.176;16.338;2023-03-20T02:08:21;99173.34;;;6.38;73.21
66762;BME280;53672;48.176;16.338;2023-03-20T02:13:25;99176.19;;;6.27;73.48
66762;BME280;53672;48.176;16.338;2023-03-20T02:18:27;99175.06;;;6.23;74.31
66762;BME280;53672;48.176;16.338;2023-03-20T02:23:54;99171.69;;;6.32;74.15
66762;BME280;53672;48.176;16.338;2023-03-20T02:35:07;99180.34;;;6.66;73.80
66762;BME280;53672;48.176;16.338;2023-03-20T02:40:21;99178.78;;;6.70;73.63
66762;BME280;53672;48.176;16.338;2023-03-20T02:45:27;99182.28;;;6.76;73.79
66762;BME280;53672;48.176;16.338;2023-03-20T02:50:34;99195.66;;;6.71;74.23
66762;BME280;53672;48.176;16.338;2023-03-20T02:55:41;99187.22;;;6.57;74.80
66762;BME280;53672;48.176;16.338;2023-03-20T03:00:49;99189.22;;;6.45;75.92
66762;BME280;53672;48.176;16.338;2023-03-20T03:05:54;99193.56;;;6.51;77.23
66762;BME280;53672;48.176;16.338;2023-03-20T03:11:01;99187.00;;;6.63;77.07
66762;BME280;53672;48.176;16.338;2023-03-20T03:16:07;99203.94;;;6.69;76.78
66762;BME280;53672;48.176;16.338;2023-03-20T03:21:11;99209.47;;;6.62;76.17
66762;BME280;53672;48.176;16.338;2023-03-20T03:26:17;99211.00;;;6.53;77.04
66762;BME280;53672;48.176;16.338;2023-03-20T03:31:20;99203.09;;;6.42;77.51
66762;BME280;53672;48.176;16.338;2023-03-20T03:36:27;99200.63;;;6.35;77.86
66762;BME280;53672;48.176;16.338;2023-03-20T03:41:35;99203.38;;;6.40;78.83
66762;BME280;53672;48.176;16.338;2023-03-20T03:46:42;99203.66;;;6.44;78.94
66762;BME280;53672;48.176;16.338;2023-03-20T03:51:47;99205.59;;;6.48;78.54
66762;BME280;53672;48.176;16.338;2023-03-20T03:56:52;99201.03;;;6.49;80.43
66762;BME280;53672;48.176;16.338;2023-03-20T04:01:55;99193.00;;;6.49;80.50
66762;BME280;53672;48.176;16.338;2023-03-20T04:06:57;99203.31;;;6.35;81.46
66762;BME280;53672;48.176;16.338;2023-03-20T04:11:59;99203.94;;;6.21;81.88
66762;BME280;53672;48.176;16.338;2023-03-20T04:17:00;99205.19;;;6.13;82.14
66762;BME280;53672;48.176;16.338;2023-03-20T04:22:00;99196.06;;;6.09;82.81
66762;BME280;53672;48.176;16.338;2023-03-20T04:27:02;99201.75;;;5.96;83.71
66762;BME280;53672;48.176;16.338;2023-03-20T04:32:03;99194.00;;;5.94;84.81
66762;BME280;53672;48.176;16.338;2023-03-20T04:37:04;99203.97;;;5.99;85.73
66762;BME280;53672;48.176;16.338;2023-03-20T04:42:06;99205.56;;;6.00;85.84
66762;BME280;53672;48.176;16.338;2023-03-20T04:47:06;99211.09;;;5.93;86.85
66762;BME280;53672;48.176;16.338;2023-03-20T04:52:07;99207.00;;;6.07;87.45
66762;BME280;53672;48.176;16.338;2023-03-20T04:57:08;99217.34;;;5.99;88.54
66762;BME280;53672;48.176;16.338;2023-03-20T05:02:09;99229.63;;;6.00;88.58
66762;BME280;53672;48.176;16.338;2023-03-20T05:07:09;99239.41;;;6.11;89.15
66762;BME280;53672;48.176;16.338;2023-03-20T05:12:12;99246.94;;;6.14;88.35
66762;BME280;53672;48.176;16.338;2023-03-20T05:17:12;99250.97;;;6.17;88.67
66762;BME280;53672;48.176;16.338;2023-03-20T05:22:13;99248.38;;;6.22;88.86
66762;BME280;53672;48.176;16.338;2023-03-20T05:27:15;99260.75;;;6.28;88.63
66762;BME280;53672;48.176;16.338;2023-03-20T05:32:15;99276.69;;;6.39;88.52
66762;BME280;53672;48.176;16.338;2023-03-20T05:37:16;99279.72;;;6.48;87.80
66762;BME280;53672;48.176;16.338;2023-03-20T05:42:17;99284.84;;;6.49;87.62
66762;BME280;53672;48.176;16.338;2023-03-20T05:47:18;99290.56;;;6.58;87.71
66762;BME280;53672;48.176;16.338;2023-03-20T05:52:18;99292.88;;;6.71;87.29
66762;BME280;53672;48.176;16.338;2023-03-20T05:57:20;99298.19;;;6.93;86.29
66762;BME280;53672;48.176;16.338;2023-03-20T06:02:21;99304.34;;;7.20;85.36
66762;BME280;53672;48.176;16.338;2023-03-20T06:07:21;99314.25;;;7.46;84.25
66762;BME280;53672;48.176;16.338;2023-03-20T06:12:23;99312.91;;;7.81;82.85
66762;BME280;53672;48.176;16.338;2023-03-20T06:17:24;99316.31;;;8.08;81.61
66762;BME280;53672;48.176;16.338;2023-03-20T06:22:24;99313.50;;;8.30;80.61
66762;BME280;53672;48.176;16.338;2023-03-20T06:27:26;99320.13;;;8.69;79.22
66762;BME280;53672;48.176;16.338;2023-03-20T06:32:27;99319.44;;;9.09;77.77
66762;BME280;53672;48.176;16.338;2023-03-20T06:37:27;99322.19;;;9.59;75.71
66762;BME280;53672;48.176;16.338;2023-03-20T06:42:29;99329.16;;;10.26;72.96
66762;BME280;53672;48.176;16.338;2023-03-20T06:47:30;99327.03;;;10.92;70.42
66762;BME280;53672;48.176;16.338;2023-03-20T06:52:30;99327.78;;;11.42;68.49
66762;BME280;53672;48.176;16.338;2023-03-20T06:57:32;99327.97;;;11.89;66.56
66762;BME280;53672;48.176;16.338;2023-03-20T07:02:33;99332.09;;;12.39;64.68
66762;BME280;53672;48.176;16.338;2023-03-20T07:07:33;99330.44;;;12.86;63.32
66762;BME280;53672;48.176;16.338;2023-03-20T07:12:35;99338.34;;;13.25;61.91
66762;BME280;53672;48.176;16.338;2023-03-20T07:17:35;99344.88;;;13.75;60.39
66762;BME280;53672;48.176;16.338;2023-03-20T07:22:36;99347.41;;;14.17;58.99
66762;BME280;53672;48.176;16.338;2023-03-20T07:27:38;99346.69;;;14.57;57.66
66762;BME280;53672;48.176;16.338;2023-03-20T07:32:38;99355.19;;;15.05;56.25
66762;BME280;53672;48.176;16.338;2023-03-20T07:37:39;99353.72;;;15.49;54.78
66762;BME280;53672;48.176;16.338;2023-03-20T07:42:41;99351.53;;;15.95;53.09
66762;BME280;53672;48.176;16.338;2023-03-20T07:47:42;99357.06;;;16.43;51.62
66762;BME280;53672;48.176;16.338;2023-03-20T07:52:45;99355.22;;;17.00;49.65
66762;BME280;53672;48.176;16.338;2023-03-20T07:57:48;99355.75;;;17.54;48.00
66762;BME280;53672;48.176;16.338;2023-03-20T08:02:48;99365.25;;;18.08;46.15
66762;BME280;53672;48.176;16.338;2023-03-20T08:07:49;99367.72;;;18.39;44.88
66762;BME280;53672;48.176;16.338;2023-03-20T08:12:51;99360.47;;;18.43;44.84
66762;BME280;53672;48.176;16.338;2023-03-20T08:17:51;99354.16;;;18.68;44.17
66762;BME280;53672;48.176;16.338;2023-03-20T08:22:52;99355.28;;;18.67;44.50
66762;BME280;53672;48.176;16.338;2023-03-20T08:27:54;99359.88;;;19.34;42.76
66762;BME280;53672;48.176;16.338;2023-03-20T08:32:54;99354.06;;;19.64;42.04
66762;BME280;53672;48.176;16.338;2023-03-20T08:37:55;99349.91;;;21.05;39.02
66762;BME280;53672;48.176;16.338;2023-03-20T08:42:57;99346.59;;;24.02;33.45
66762;BME280;53672;48.176;16.338;2023-03-20T08:47:58;99354.59;;;26.91;28.54
66762;BME280;53672;48.176;16.338;2023-03-20T08:52:58;99349.00;;;28.25;26.78
66762;BME280;53672;48.176;16.338;2023-03-20T08:58:00;99359.81;;;27.61;26.94
66762;BME280;53672;48.176;16.338;2023-03-20T09:03:01;99345.81;;;28.34;26.64
66762;BME280;53672;48.176;16.338;2023-03-20T09:08:01;99345.78;;;29.54;24.54
66762;BME280;53672;48.176;16.338;2023-03-20T09:13:03;99354.00;;;29.96;23.80
66762;BME280;53672;48.176;16.338;2023-03-20T09:18:04;99358.25;;;31.25;21.78
66762;BME280;53672;48.176;16.338;2023-03-20T09:23:04;99348.25;;;29.31;24.42
66762;BME280;53672;48.176;16.338;2023-03-20T09:28:06;99349.19;;;30.66;22.54
66762;BME280;53672;48.176;16.338;2023-03-20T09:33:07;99352.28;;;34.43;18.31
66762;BME280;53672;48.176;16.338;2023-03-20T09:38:07;99344.34;;;33.23;19.22
66762;BME280;53672;48.176;16.338;2023-03-20T09:43:16;99344.44;;;34.18;18.66
66762;BME280;53672;48.176;16.338;2023-03-20T09:48:23;99345.22;;;35.19;17.05
66762;BME280;53672;48.176;16.338;2023-03-20T09:53:31;99338.50;;;32.14;20.50
66762;BME280;53672;48.176;16.338;2023-03-20T09:58:36;99336.59;;;31.02;21.68
66762;BME280;53672;48.176;16.338;2023-03-20T10:03:41;99331.63;;;31.58;21.17
66762;BME280;53672;48.176;16.338;2023-03-20T10:08:44;99330.78;;;33.64;19.70
66762;BME280;53672;48.176;16.338;2023-03-20T10:14:01;99323.59;;;33.44;18.93
66762;BME280;53672;48.176;16.338;2023-03-20T10:19:09;99320.91;;;32.17;20.06
66762;BME280;53672;48.176;16.338;2023-03-20T10:24:16;99311.81;;;32.13;20.41
66762;BME280;53672;48.176;16.338;2023-03-20T10:29:24;99306.41;;;33.65;19.04
66762;BME280;53672;48.176;16.338;2023-03-20T10:34:48;99299.75;;;31.89;20.53
66762;BME280;53672;48.176;16.338;2023-03-20T10:39:58;99295.22;;;31.72;20.91
66762;BME280;53672;48.176;16.338;2023-03-20T10:45:06;99288.47;;;29.95;21.83
66762;BME280;53672;48.176;16.338;2023-03-20T10:50:10;99285.28;;;32.01;19.93
66762;BME280;53672;48.176;16.338;2023-03-20T10:55:17;99290.34;;;34.73;17.77
66762;BME280;53672;48.176;16.338;2023-03-20T11:00:22;99282.44;;;32.58;19.33
66762;BME280;53672;48.176;16.338;2023-03-20T11:05:28;99261.44;;;29.99;21.98
66762;BME280;53672;48.176;16.338;2023-03-20T11:10:31;99271.66;;;31.77;19.96
66762;BME280;53672;48.176;16.338;2023-03-20T11:15:33;99259.78;;;31.05;21.26
66762;BME280;53672;48.176;16.338;2023-03-20T11:20:38;99268.53;;;33.41;19.04
66762;BME280;53672;48.176;16.338;2023-03-20T11:25:48;99267.91;;;33.73;18.38
66762;BME280;53672;48.176;16.338;2023-03-20T11:30:56;99257.69;;;31.80;19.82
66762;BME280;53672;48.176;16.338;2023-03-20T11:35:58;99245.47;;;30.62;22.01
66762;BME280;53672;48.176;16.338;2023-03-20T11:41:03;99229.03;;;30.30;22.40
66762;BME280;53672;48.176;16.338;2023-03-20T11:46:09;99234.75;;;31.01;21.66
66762;BME280;53672;48.176;16.338;2023-03-20T11:51:14;99224.28;;;29.68;22.63
66762;BME280;53672;48.176;16.338;2023-03-20T11:56:21;99218.09;;;26.18;27.53
66762;BME280;53672;48.176;16.338;2023-03-20T12:01:24;99212.66;;;25.18;29.14
66762;BME280;53672;48.176;16.338;2023-03-20T12:06:27;99200.19;;;24.72;29.40
66762;BME280;53672;48.176;16.338;2023-03-20T12:11:42;99202.44;;;23.49;31.70
66762;BME280;53672;48.176;16.338;2023-03-20T12:16:48;99203.56;;;23.29;32.48
66762;BME280;53672;48.176;16.338;2023-03-20T12:21:54;99216.13;;;24.59;30.70
66762;BME280;53672;48.176;16.338;2023-03-20T12:27:10;99213.94;;;23.97;31.66
66762;BME280;53672;48.176;16.338;2023-03-20T12:32:19;99213.06;;;23.32;32.82
66762;BME280;53672;48.176;16.338;2023-03-20T12:37:21;99211.78;;;24.32;30.86
66762;BME280;53672;48.176;16.338;2023-03-20T12:42:31;99211.56;;;24.70;30.48
66762;BME280;53672;48.176;16.338;2023-03-20T12:47:49;99204.53;;;24.99;30.22
66762;BME280;53672;48.176;16.338;2023-03-20T12:53:01;99194.00;;;23.84;31.46
66762;BME280;53672;48.176;16.338;2023-03-20T12:58:13;99195.41;;;24.16;31.39
66762;BME280;53672;48.176;16.338;2023-03-20T13:03:57;99200.09;;;24.16;31.06
66762;BME280;53672;48.176;16.338;2023-03-20T13:09:14;99183.81;;;24.07;31.34
66762;BME280;53672;48.176;16.338;2023-03-20T13:14:22;99193.00;;;24.15;31.12
66762;BME280;53672;48.176;16.338;2023-03-20T13:19:30;99185.53;;;24.15;31.57
66762;BME280;53672;48.176;16.338;2023-03-20T13:24:37;99184.09;;;24.48;31.01
66762;BME280;53672;48.176;16.338;2023-03-20T13:29:45;99172.16;;;23.30;32.95
66762;BME280;53672;48.176;16.338;2023-03-20T13:34:59;99183.06;;;22.88;33.70
66762;BME280;53672;48.176;16.338;2023-03-20T13:40:13;99180.59;;;22.48;33.63
66762;BME280;53672;48.176;16.338;2023-03-20T13:45:24;99177.28;;;21.92;34.60
66762;BME280;53672;48.176;16.338;2023-03-20T13:50:41;99181.94;;;21.60;35.36
66762;BME280;53672;48.176;16.338;2023-03-20T13:55:48;99179.22;;;20.93;36.66
66762;BME280;53672;48.176;16.338;2023-03-20T14:00:56;99173.75;;;20.29;38.43
66762;BME280;53672;48.176;16.338;2023-03-20T14:06:15;99168.72;;;20.06;38.85
66762;BME280;53672;48.176;16.338;2023-03-20T14:11:26;99178.91;;;19.61;39.69
66762;BME280;53672;48.176;16.338;2023-03-20T14:16:28;99169.75;;;19.45;39.99
66762;BME280;53672;48.176;16.338;2023-03-20T14:21:30;99174.75;;;19.43;40.46
66762;BME280;53672;48.176;16.338;2023-03-20T14:26:34;99162.69;;;19.44;40.24
66762;BME280;53672;48.176;16.338;2023-03-20T14:31:37;99170.50;;;19.12;41.30
66762;BME280;53672;48.176;16.338;2023-03-20T14:36:54;99154.22;;;18.83;41.93
66762;BME280;53672;48.176;16.338;2023-03-20T14:42:04;99149.63;;;18.54;42.61
66762;BME280;53672;48.176;16.338;2023-03-20T14:47:19;99151.91;;;18.44;42.89
66762;BME280;53672;48.176;16.338;2023-03-20T14:52:44;99151.56;;;18.24;43.36
66762;BME280;53672;48.176;16.338;2023-03-20T14:57:46;99164.19;;;18.00;43.36
66762;BME280;53672;48.176;16.338;2023-03-20T15:02:49;99171.13;;;17.97;43.25
66762;BME280;53672;48.176;16.338;2023-03-20T15:07:52;99163.78;;;17.89;43.20
66762;BME280;53672;48.176;16.338;2023-03-20T15:12:52;99165.09;;;17.83;43.62
66762;BME280;53672;48.176;16.338;2023-03-20T15:17:54;99165.81;;;17.63;43.87
66762;BME280;53672;48.176;16.338;2023-03-20T15:22:57;99165.81;;;17.46;44.45
66762;BME280;53672;48.176;16.338;2023-03-20T15:27:58;99161.03;;;17.43;44.41
66762;BME280;53672;48.176;16.338;2023-03-20T15:32:58;99161.38;;;17.33;43.91
66762;BME280;53672;48.176;16.338;2023-03-20T15:38:05;99163.47;;;17.18;43.90
66762;BME280;53672;48.176;16.338;2023-03-20T15:43:12;99168.59;;;17.03;44.40
66762;BME280;53672;48.176;16.338;2023-03-20T15:48:14;99166.69;;;16.86;44.91
66762;BME280;53672;48.176;16.338;2023-03-20T15:53:19;99180.63;;;16.76;44.89
66762;BME280;53672;48.176;16.338;2023-03-20T15:58:20;99181.25;;;16.56;45.62
66762;BME280;53672;48.176;16.338;2023-03-20T16:03:20;99182.44;;;16.33;45.92
66762;BME280;53672;48.176;16.338;2023-03-20T16:08:27;99185.59;;;16.17;46.72
66762;BME280;53672;48.176;16.338;2023-03-20T16:13:30;99186.00;;;15.94;47.26
66762;BME280;53672;48.176;16.338;2023-03-20T16:18:36;99200.44;;;15.72;47.85
66762;BME280;53672;48.176;16.338;2023-03-20T16:23:40;99207.91;;;15.58;48.36
66762;BME280;53672;48.176;16.338;2023-03-20T16:28:41;99206.63;;;15.42;49.28
66762;BME280;53672;48.176;16.338;2023-03-20T16:33:45;99201.88;;;15.25;50.57
66762;BME280;53672;48.176;16.338;2023-03-20T16:38:56;99198.22;;;15.07;51.85
66762;BME280;53672;48.176;16.338;2023-03-20T16:43:57;99204.84;;;14.93;52.92
66762;BME280;53672;48.176;16.338;2023-03-20T16:49:34;99198.75;;;14.73;54.85
66762;BME280;53672;48.176;16.338;2023-03-20T16:54:46;99205.63;;;14.57;55.39
66762;BME280;53672;48.176;16.338;2023-03-20T16:59:47;99203.34;;;14.37;56.40
66762;BME280;53672;48.176;16.338;2023-03-20T17:04:48;99220.41;;;14.24;57.52
66762;BME280;53672;48.176;16.338;2023-03-20T17:09:55;99218.47;;;14.11;58.20
66762;BME280;53672;48.176;16.338;2023-03-20T17:14:57;99232.75;;;14.03;58.80
66762;BME280;53672;48.176;16.338;2023-03-20T17:19:57;99239.16;;;13.93;59.90
66762;BME280;53672;48.176;16.338;2023-03-20T17:24:59;99248.47;;;13.87;61.43
66762;BME280;53672;48.176;16.338;2023-03-20T17:30:00;99251.28;;;13.82;61.70
66762;BME280;53672;48.176;16.338;2023-03-20T17:35:00;99247.28;;;13.80;61.19
66762;BME280;53672;48.176;16.338;2023-03-20T17:40:03;99253.47;;;13.80;61.17
66762;BME280;53672;48.176;16.338;2023-03-20T17:45:04;99252.94;;;13.64;62.36
66762;BME280;53672;48.176;16.338;2023-03-20T17:50:08;99258.47;;;13.59;62.58
66762;BME280;53672;48.176;16.338;2023-03-20T17:55:11;99250.84;;;13.61;62.91
66762;BME280;53672;48.176;16.338;2023-03-20T18:00:14;99253.41;;;13.53;63.05
66762;BME280;53672;48.176;16.338;2023-03-20T18:05:17;99256.63;;;13.55;63.21
66762;BME280;53672;48.176;16.338;2023-03-20T18:10:24;99259.53;;;13.45;63.53
66762;BME280;53672;48.176;16.338;2023-03-20T18:15:25;99260.00;;;13.47;63.12
66762;BME280;53672;48.176;16.338;2023-03-20T18:20:29;99262.72;;;13.47;63.10
66762;BME280;53672;48.176;16.338;2023-03-20T18:25:31;99271.53;;;13.39;63.27
66762;BME280;53672;48.176;16.338;2023-03-20T18:30:34;99262.88;;;13.37;63.25
66762;BME280;53672;48.176;16.338;2023-03-20T18:35:35;99271.88;;;13.32;63.34
66762;BME280;53672;48.176;16.338;2023-03-20T18:40:38;99275.50;;;13.28;63.57
66762;BME280;53672;48.176;16.338;2023-03-20T18:45:38;99272.78;;;13.28;63.49
66762;BME280;53672;48.176;16.338;2023-03-20T18:50:40;99282.09;;;13.22;63.60
66762;BME280;53672;48.176;16.338;2023-03-20T18:55:42;99272.34;;;13.20;63.68
66762;BME280;53672;48.176;16.338;2023-03-20T19:00:44;99280.53;;;13.15;63.62
66762;BME280;53672;48.176;16.338;2023-03-20T19:05:44;99278.63;;;13.16;63.74
66762;BME280;53672;48.176;16.338;2023-03-20T19:10:48;99277.94;;;13.05;64.18
66762;BME280;53672;48.176;16.338;2023-03-20T19:15:50;99281.91;;;12.94;64.45
66762;BME280;53672;48.176;16.338;2023-03-20T19:20:52;99275.16;;;12.92;64.65
66762;BME280;53672;48.176;16.338;2023-03-20T19:25:55;99285.25;;;12.86;64.81
66762;BME280;53672;48.176;16.338;2023-03-20T19:30:56;99278.38;;;12.75;65.13
66762;BME280;53672;48.176;16.338;2023-03-20T19:35:57;99282.47;;;12.73;65.19
66762;BME280;53672;48.176;16.338;2023-03-20T19:41:03;99283.28;;;12.73;65.19
66762;BME280;53672;48.176;16.338;2023-03-20T19:46:04;99288.47;;;12.69;65.40
66762;BME280;53672;48.176;16.338;2023-03-20T19:51:08;99286.91;;;12.63;65.58
66762;BME280;53672;48.176;16.338;2023-03-20T19:56:15;99292.59;;;12.62;65.45
66762;BME280;53672;48.176;16.338;2023-03-20T20:01:17;99290.19;;;12.60;65.69
66762;BME280;53672;48.176;16.338;2023-03-20T20:06:18;99291.91;;;12.51;66.14
66762;BME280;53672;48.176;16.338;2023-03-20T20:11:21;99286.47;;;12.56;66.03
66762;BME280;53672;48.176;16.338;2023-03-20T20:16:22;99282.50;;;12.49;66.82
66762;BME280;53672;48.176;16.338;2023-03-20T20:21:23;99278.75;;;12.45;66.84
66762;BME280;53672;48.176;16.338;2023-03-20T20:26:26;99277.72;;;12.41;66.83
66762;BME280;53672;48.176;16.338;2023-03-20T20:31:27;99282.63;;;12.39;66.93
66762;BME280;53672;48.176;16.338;2023-03-20T20:36:29;99288.84;;;12.39;66.81
66762;BME280;53672;48.176;16.338;2023-03-20T20:41:31;99298.59;;;12.35;67.29
66762;BME280;53672;48.176;16.338;2023-03-20T20:46:31;99298.38;;;12.32;67.24
66762;BME280;53672;48.176;16.338;2023-03-20T20:51:32;99295.13;;;12.30;67.57
66762;BME280;53672;48.176;16.338;2023-03-20T20:56:34;99290.38;;;12.22;67.74
66762;BME280;53672;48.176;16.338;2023-03-20T21:01:35;99291.47;;;12.20;67.74
66762;BME280;53672;48.176;16.338;2023-03-20T21:06:39;99292.84;;;12.18;67.85
66762;BME280;53672;48.176;16.338;2023-03-20T21:11:41;99286.13;;;12.15;67.95
66762;BME280;53672;48.176;16.338;2023-03-20T21:16:41;99286.97;;;12.11;68.16
66762;BME280;53672;48.176;16.338;2023-03-20T21:21:42;99293.81;;;12.03;68.14
66762;BME280;53672;48.176;16.338;2023-03-20T21:26:44;99304.09;;;12.01;68.08
66762;BME280;53672;48.176;16.338;2023-03-20T21:31:45;99290.72;;;11.86;68.40
66762;BME280;53672;48.176;16.338;2023-03-20T21:36:45;99298.66;;;11.78;68.47
66762;BME280;53672;48.176;16.338;2023-03-20T21:41:47;99296.78;;;11.68;68.88
66762;BME280;53672;48.176;16.338;2023-03-20T21:46:48;99294.75;;;11.55;68.87
66762;BME280;53672;48.176;16.338;2023-03-20T21:51:49;99305.06;;;11.48;68.84
66762;BME280;53672;48.176;16.338;2023-03-20T21:56:51;99304.53;;;11.46;68.89
66762;BME280;53672;48.176;16.338;2023-03-20T22:01:52;99306.00;;;11.33;69.68
66762;BME280;53672;48.176;16.338;2023-03-20T22:06:52;99306.91;;;11.18;69.83
66762;BME280;53672;48.176;16.338;2023-03-20T22:11:55;99298.06;;;11.08;70.94
66762;BME280;53672;48.176;16.338;2023-03-20T22:16:56;99307.53;;;11.00;71.40
66762;BME280;53672;48.176;16.338;2023-03-20T22:21:56;99308.91;;;10.98;71.59
66762;BME280;53672;48.176;16.338;2023-03-20T22:26:58;99308.91;;;10.98;71.86
66762;BME280;53672;48.176;16.338;2023-03-20T22:31:59;99305.97;;;10.89;72.34
66762;BME280;53672;48.176;16.338;2023-03-20T22:36:59;99300.63;;;10.84;72.69
66762;BME280;53672;48.176;16.338;2023-03-20T22:42:01;99303.34;;;10.79;73.30
66762;BME280;53672;48.176;16.338;2023-03-20T22:47:02;99292.09;;;10.67;73.92
66762;BME280;53672;48.176;16.338;2023-03-20T22:52:02;99298.59;;;10.56;74.51
66762;BME280;53672;48.176;16.338;2023-03-20T22:57:04;99295.97;;;10.41;75.30
66762;BME280;53672;48.176;16.338;2023-03-20T23:02:05;99299.78;;;10.25;75.72
66762;BME280;53672;48.176;16.338;2023-03-20T23:07:05;99297.59;;;10.32;78.80
66762;BME280;53672;48.176;16.338;2023-03-20T23:12:07;99299.78;;;10.30;78.21
66762;BME280;53672;48.176;16.338;2023-03-20T23:17:08;99295.47;;;10.34;76.53
66762;BME280;53672;48.176;16.338;2023-03-20T23:22:08;99293.88;;;10.12;77.46
66762;BME280;53672;48.176;16.338;2023-03-20T23:27:10;99288.50;;;9.97;78.04
66762;BME280;53672;48.176;16.338;2023-03-20T23:32:11;99287.97;;;9.90;78.56
66762;BME280;53672;48.176;16.338;2023-03-20T23:37:11;99283.94;;;9.88;78.88
66762;BME280;53672;48.176;16.338;2023-03-20T23:42:13;99283.13;;;9.87;79.06
66762;BME280;53672;48.176;16.338;2023-03-20T23:47:14;99282.06;;;9.88;79.22
66762;BME280;53672;48.176;16.338;2023-03-20T23:52:14;99287.72;;;9.82;79.08
66762;BME280;53672;48.176;16.338;2023-03-20T23:57:16;99287.97;;;9.80;79.53
